Time;durP1;ratioP1;P1;durP2;ratioP2;P2;SDS_P1;SDS_P2;PMS_P1;PMS_P2;Temp;Humidity;BMP_temperature;BMP_pressure;BME280_temperature;BME280_humidity;BME280_pressure;Samples;Min_cycle;Max_cycle;Signal;HPM_P1;HPM_P2
2021/09/14 00:00:13;;;;;;;9.00;8.07;;;;;;;17.29;62.94;94965.78;5034836;28;20509;-82
2021/09/14 00:02:40;;;;;;;12.70;9.20;;;;;;;17.29;62.84;94971.09;5049361;28;20531;-81
2021/09/14 00:05:10;;;;;;;8.63;7.57;;;;;;;17.29;62.51;94964.97;5034304;28;20438;-82
2021/09/14 00:07:37;;;;;;;11.23;7.60;;;;;;;17.32;62.52;94977.88;5034408;28;20441;-82
2021/09/14 00:10:04;;;;;;;8.90;7.70;;;;;;;17.33;61.95;94966.28;5034124;28;20898;-81
2021/09/14 00:12:31;;;;;;;9.13;8.20;;;;;;;17.30;62.47;94972.75;5032579;28;20444;-81
2021/09/14 00:14:58;;;;;;;11.07;8.03;;;;;;;17.31;62.09;94969.09;5034154;28;20429;-82
2021/09/14 00:17:25;;;;;;;8.67;7.17;;;;;;;17.31;62.03;94966.44;5034258;28;20473;-82
2021/09/14 00:19:52;;;;;;;8.00;7.20;;;;;;;17.32;61.83;94970.75;5033967;28;20484;-81
2021/09/14 00:22:20;;;;;;;9.03;7.67;;;;;;;17.33;61.17;94976.88;5032953;28;20445;-81
2021/09/14 00:24:47;;;;;;;8.50;7.07;;;;;;;17.38;61.20;94965.78;5033800;28;20463;-81
2021/09/14 00:27:14;;;;;;;9.50;8.37;;;;;;;17.38;60.90;94961.31;5033929;28;20423;-81
2021/09/14 00:29:41;;;;;;;10.30;7.83;;;;;;;17.39;61.10;94970.09;5033886;28;20517;-81
2021/09/14 00:32:08;;;;;;;8.43;7.47;;;;;;;17.34;61.22;94974.06;5033895;28;20895;-81
2021/09/14 00:34:35;;;;;;;9.80;8.20;;;;;;;17.34;60.87;94974.06;5032658;28;20442;-81
2021/09/14 00:37:02;;;;;;;8.13;7.33;;;;;;;17.30;61.59;94978.06;5015880;28;20526;-81
2021/09/14 00:39:30;;;;;;;10.03;7.30;;;;;;;17.32;60.70;94976.06;5031946;28;20486;-82
2021/09/14 00:41:57;;;;;;;8.77;6.87;;;;;;;17.38;61.29;94974.56;5033963;28;20448;-81
2021/09/14 00:44:24;;;;;;;9.63;7.67;;;;;;;17.38;61.00;94973.75;5034511;28;20437;-81
2021/09/14 00:46:51;;;;;;;8.03;7.27;;;;;;;17.41;60.83;94978.72;5033818;28;20464;-81
2021/09/14 00:49:18;;;;;;;8.03;7.10;;;;;;;17.45;60.94;94980.03;5033397;28;21061;-82
2021/09/14 00:51:45;;;;;;;8.60;7.70;;;;;;;17.43;61.06;94974.06;5033438;28;20446;-81
2021/09/14 00:54:15;;;;;;;10.17;7.33;;;;;;;17.40;60.90;94977.88;5033528;28;20852;-82
2021/09/14 00:56:44;;;;;;;7.57;6.97;;;;;;;17.43;60.45;94980.19;5033728;28;20455;-81
2021/09/14 00:59:11;;;;;;;7.93;7.07;;;;;;;17.33;60.57;94969.75;5033290;28;20474;-82
2021/09/14 01:11:45;;;;;;;8.70;7.90;;;;;;;17.16;60.80;94970.81;5032618;28;20795;-81
2021/09/14 01:14:12;;;;;;;8.80;7.87;;;;;;;17.14;61.28;94966.66;5033132;28;20438;-82
2021/09/14 01:16:41;;;;;;;8.67;7.87;;;;;;;17.18;61.36;94974.09;5031770;28;20525;-82
2021/09/14 01:19:09;;;;;;;10.23;7.40;;;;;;;17.14;61.69;94969.31;5033234;28;20479;-81
2021/09/14 01:21:37;;;;;;;8.50;7.70;;;;;;;17.09;61.41;94972.47;5033499;28;20824;-81
2021/09/14 01:24:06;;;;;;;8.90;8.00;;;;;;;17.02;61.80;94974.94;5033751;28;20440;-81
2021/09/14 01:26:34;;;;;;;12.17;8.50;;;;;;;17.02;62.05;94974.13;5033931;28;20867;-81
2021/09/14 01:29:07;;;;;;;11.47;8.57;;;;;;;17.01;62.90;94975.13;5033231;28;20446;-81
2021/09/14 01:31:34;;;;;;;9.53;7.50;;;;;;;16.97;63.27;94987.06;5034216;28;20817;-82
2021/09/14 01:34:01;;;;;;;13.20;8.70;;;;;;;16.87;64.11;94973.97;5018427;28;20547;-81
2021/09/14 01:36:28;;;;;;;13.87;9.73;;;;;;;16.72;66.02;94980.91;5037093;28;20530;-82
2021/09/14 01:38:55;;;;;;;11.27;9.50;;;;;;;16.47;67.10;94982.69;5018947;28;20555;-81
2021/09/14 01:41:23;;;;;;;11.70;8.90;;;;;;;16.38;67.29;94979.22;5037305;28;20439;-81
2021/09/14 01:43:51;;;;;;;14.33;9.63;;;;;;;16.37;68.09;94982.84;5036949;28;20539;-81
2021/09/14 01:46:18;;;;;;;13.57;10.50;;;;;;;16.39;68.41;94977.38;5051712;28;20954;-81
2021/09/14 01:48:45;;;;;;;12.80;9.43;;;;;;;16.34;68.30;94979.69;5037595;28;20461;-81
2021/09/14 01:51:14;;;;;;;12.37;8.60;;;;;;;16.23;67.56;94978.19;5019382;28;20512;-81
2021/09/14 01:53:41;;;;;;;10.47;8.27;;;;;;;16.24;67.27;94981.69;5037363;28;20503;-81
2021/09/14 01:56:08;;;;;;;7.83;7.13;;;;;;;16.18;66.76;94977.84;5036720;28;20449;-81
2021/09/14 01:58:36;;;;;;;9.13;8.33;;;;;;;16.23;66.36;94982.66;5036641;28;20474;-81
2021/09/14 02:01:07;;;;;;;8.50;7.60;;;;;;;16.26;66.51;94987.63;5037552;28;20537;-82
2021/09/14 02:03:56;;;;;;;13.87;9.80;;;;;;;16.28;67.00;94986.47;5036912;28;20436;-81
2021/09/14 02:06:35;;;;;;;10.03;8.90;;;;;;;16.27;67.20;94987.47;5036867;28;20462;-81
2021/09/14 02:24:03;;;;;;;11.30;10.10;;;;;;;16.42;67.55;94988.47;4995015;28;20979;-82
2021/09/14 02:43:27;;;;;;;10.30;8.77;;;;;;;16.37;67.86;94988.16;4917847;29;20750;-81
2021/09/14 02:59:56;;;;;;;11.20;9.97;;;;;;;15.89;69.65;95001.22;4955538;29;21021;-81
2021/09/14 03:02:23;;;;;;;13.47;11.13;;;;;;;15.86;69.89;94997.09;4955354;29;20458;-81
2021/09/14 03:04:50;;;;;;;13.10;11.03;;;;;;;15.85;69.66;95002.53;4924274;29;20538;-81
2021/09/14 03:07:18;;;;;;;9.90;9.00;;;;;;;15.83;69.70;95001.88;4955214;29;21043;-81
2021/09/14 03:09:45;;;;;;;11.00;8.93;;;;;;;15.80;69.61;95003.03;4981314;28;20443;-82
2021/09/14 03:12:12;;;;;;;10.50;8.90;;;;;;;15.80;69.59;95003.84;4994758;28;20442;-81
2021/09/14 03:14:39;;;;;;;11.47;8.87;;;;;;;15.74;69.77;95008.97;5014411;28;20542;-82
2021/09/14 03:17:06;;;;;;;13.30;10.17;;;;;;;15.67;70.54;95005.28;5035631;28;20871;-81
2021/09/14 03:19:33;;;;;;;11.03;9.67;;;;;;;15.73;71.07;95005.50;5035167;28;21049;-81
2021/09/14 03:22:00;;;;;;;10.00;9.07;;;;;;;15.84;70.64;95008.81;5035281;28;20450;-81
2021/09/14 03:24:30;;;;;;;12.53;10.07;;;;;;;15.97;70.52;95007.41;5035456;28;20431;-81
2021/09/14 03:26:58;;;;;;;16.27;9.33;;;;;;;16.13;69.64;95005.78;5035529;28;21038;-81
2021/09/14 03:29:25;;;;;;;10.67;8.53;;;;;;;16.27;69.57;95011.31;5035068;28;20478;-81
2021/09/14 03:31:52;;;;;;;8.80;8.00;;;;;;;16.40;68.34;95010.81;5035254;28;20584;-81
2021/09/14 03:34:19;;;;;;;10.53;8.30;;;;;;;16.58;67.59;95010.69;5035652;28;20873;-81
2021/09/14 03:36:46;;;;;;;11.37;9.83;;;;;;;16.67;66.86;95015.88;5017302;28;20445;-81
2021/09/14 03:39:13;;;;;;;10.67;9.53;;;;;;;16.66;67.68;95011.56;5035146;28;20549;-81
2021/09/14 03:41:42;;;;;;;13.23;9.70;;;;;;;16.70;66.09;95018.19;5034972;28;20444;-81
2021/09/14 03:44:08;;;;;;;11.03;9.90;;;;;;;16.56;66.55;95017.97;5035068;28;20530;-81
2021/09/14 03:46:35;;;;;;;18.17;10.87;;;;;;;16.41;67.47;95015.97;5035093;28;20516;-81
2021/09/14 03:49:03;;;;;;;23.70;12.53;;;;;;;16.39;67.60;95022.41;5034843;28;20452;-81
2021/09/14 03:51:30;;;;;;;15.67;11.80;;;;;;;16.42;67.52;95024.72;5034598;28;20487;-82
2021/09/14 03:53:57;;;;;;;18.10;11.13;;;;;;;16.29;67.97;95027.84;5035402;28;20492;-81
2021/09/14 03:56:24;;;;;;;16.83;11.63;;;;;;;16.09;68.47;95023.81;5035180;28;20444;-82
2021/09/14 03:58:52;;;;;;;16.33;10.90;;;;;;;16.09;68.82;95034.41;5035124;28;20481;-84
2021/09/14 04:01:19;;;;;;;12.83;10.30;;;;;;;16.07;69.43;95034.56;5034398;28;20448;-84
2021/09/14 04:03:55;;;;;;;14.60;11.50;;;;;;;16.10;71.22;95036.88;5034827;28;20469;-83
2021/09/14 04:09:11;;;;;;;19.27;13.47;;;;;;;16.24;69.03;95037.28;4972402;28;20427;-82
2021/09/14 04:11:38;;;;;;;16.27;12.50;;;;;;;16.27;69.30;95036.97;4972470;28;20453;-82
2021/09/14 04:14:06;;;;;;;16.30;12.70;;;;;;;16.30;68.81;95036.63;4972565;28;20584;-82
2021/09/14 04:16:33;;;;;;;13.80;10.73;;;;;;;16.29;68.43;95041.09;4972389;28;20463;-82
2021/09/14 04:19:00;;;;;;;17.13;12.53;;;;;;;16.31;68.58;95048.88;4924523;28;20490;-82
2021/09/14 04:21:27;;;;;;;18.23;11.90;;;;;;;16.39;68.52;95056.84;4972601;28;20458;-82
2021/09/14 04:23:54;;;;;;;13.53;12.00;;;;;;;16.59;67.75;95063.53;4973230;28;20438;-83
2021/09/14 04:26:21;;;;;;;18.30;12.80;;;;;;;16.62;66.00;95052.59;4973061;28;20452;-82
2021/09/14 04:28:48;;;;;;;20.17;13.47;;;;;;;16.76;66.18;95066.22;4973186;28;20520;-83
2021/09/14 04:31:17;;;;;;;17.33;13.20;;;;;;;16.78;66.45;95061.63;4941394;28;20445;-83
2021/09/14 04:33:44;;;;;;;24.17;13.90;;;;;;;16.72;65.43;95069.19;4973199;28;20537;-83
2021/09/14 04:36:10;;;;;;;14.97;13.30;;;;;;;16.72;65.56;95068.38;4972177;28;20539;-83
2021/09/14 04:38:39;;;;;;;16.50;13.63;;;;;;;16.51;65.98;95066.16;4971898;28;20880;-83
2021/09/14 04:41:06;;;;;;;19.20;14.10;;;;;;;16.45;66.68;95066.78;4925229;28;20450;-83
2021/09/14 04:43:33;;;;;;;29.87;13.43;;;;;;;16.23;67.33;95070.88;4972086;28;20451;-83
2021/09/14 04:46:00;;;;;;;25.53;14.60;;;;;;;16.32;67.98;95074.38;5007398;28;20939;-83
2021/09/14 04:48:28;;;;;;;18.57;13.43;;;;;;;16.38;67.89;95066.59;5032917;28;20806;-82
2021/09/14 04:50:55;;;;;;;22.07;13.20;;;;;;;16.50;68.16;95074.28;5032514;28;20456;-83
2021/09/14 04:53:22;;;;;;;22.13;13.50;;;;;;;16.70;67.81;95067.72;5047009;28;20553;-83
2021/09/14 04:55:49;;;;;;;18.57;12.00;;;;;;;16.93;67.66;95070.56;5032629;28;20951;-83
2021/09/14 04:58:17;;;;;;;16.90;11.47;;;;;;;17.38;69.50;95066.59;5046861;28;20523;-81
2021/09/14 05:00:44;;;;;;;19.77;12.40;;;;;;;17.96;66.23;95069.00;5014084;28;20473;-81
2021/09/14 05:03:12;;;;;;;14.83;12.80;;;;;;;18.64;61.71;95067.56;5032002;28;20530;-82
2021/09/14 05:05:41;;;;;;;15.13;11.27;;;;;;;19.13;58.88;95066.25;5032742;28;20526;-83
2021/09/14 05:08:08;;;;;;;17.83;10.33;;;;;;;19.60;58.81;95067.84;5031935;28;20460;-83
2021/09/14 05:10:35;;;;;;;17.67;11.80;;;;;;;20.02;56.18;95074.44;5032787;28;20520;-83
2021/09/14 05:13:04;;;;;;;22.83;12.43;;;;;;;20.44;54.78;95067.63;5032377;28;20928;-83
2021/09/14 05:15:31;;;;;;;16.47;11.70;;;;;;;20.80;55.40;95073.78;5032197;28;20451;-84
2021/09/14 05:17:58;;;;;;;15.10;12.60;;;;;;;21.22;57.26;95077.53;5032654;28;21067;-84
2021/09/14 05:20:25;;;;;;;13.50;8.90;;;;;;;21.58;52.37;95077.44;5032194;28;20978;-84
2021/09/14 05:23:10;;;;;;;15.23;9.27;;;;;;;21.84;56.54;95079.50;5013669;28;20441;-84
2021/09/14 05:25:37;;;;;;;13.97;9.27;;;;;;;22.10;50.89;95074.38;5030457;28;20436;-85
2021/09/14 05:28:04;;;;;;;16.67;11.80;;;;;;;21.98;49.63;95083.09;5032164;28;20464;-83
2021/09/14 05:30:31;;;;;;;13.03;11.67;;;;;;;21.98;50.37;95078.59;5032015;28;20527;-85
2021/09/14 05:32:58;;;;;;;12.13;10.90;;;;;;;22.19;53.96;95080.38;5032204;28;20502;-84
2021/09/14 05:35:32;;;;;;;18.47;12.00;;;;;;;21.97;49.50;95084.94;5032769;28;20522;-84
2021/09/14 05:38:01;;;;;;;14.63;10.97;;;;;;;22.07;49.12;95087.31;5046073;28;21059;-84
2021/09/14 05:40:28;;;;;;;17.00;12.43;;;;;;;22.05;49.45;95087.50;5031941;28;20523;-86
2021/09/14 05:42:55;;;;;;;20.33;10.73;;;;;;;21.71;50.80;95087.44;5032067;28;20853;-84
2021/09/14 05:45:21;;;;;;;18.17;12.30;;;;;;;21.60;50.79;95088.75;5031887;28;20443;-84
2021/09/14 05:47:48;;;;;;;19.57;12.30;;;;;;;21.72;50.89;95089.09;5032032;28;20456;-85
2021/09/14 05:50:15;;;;;;;18.47;12.00;;;;;;;22.04;52.22;95093.03;5032279;28;20556;-84
2021/09/14 05:52:42;;;;;;;11.63;10.13;;;;;;;22.47;49.48;95094.50;5046295;28;20453;-84
2021/09/14 05:55:11;;;;;;;13.03;9.30;;;;;;;22.86;49.10;95095.75;5032021;28;20457;-84
2021/09/14 05:57:38;;;;;;;11.90;9.30;;;;;;;23.29;48.39;95098.94;5031735;28;20448;-84
2021/09/14 06:00:06;;;;;;;9.60;8.60;;;;;;;23.67;46.84;95106.44;5031718;28;20489;-82
2021/09/14 06:02:33;;;;;;;10.73;8.73;;;;;;;23.76;46.16;95100.69;5013066;28;20536;-82
2021/09/14 06:05:00;;;;;;;12.63;10.53;;;;;;;23.06;45.48;95109.19;5031827;28;20523;-82
2021/09/14 06:07:27;;;;;;;11.73;10.50;;;;;;;22.73;47.45;95109.88;5032316;28;20454;-82
2021/09/14 06:09:55;;;;;;;12.33;10.10;;;;;;;23.01;47.47;95115.16;5014935;28;20529;-82
2021/09/14 06:12:23;;;;;;;16.07;9.83;;;;;;;23.46;47.65;95116.28;5032930;28;20446;-82
2021/09/14 06:14:50;;;;;;;13.13;11.30;;;;;;;23.88;45.59;95114.28;5032633;28;20527;-82
2021/09/14 06:20:39;;;;;;;25.40;10.93;;;;;;;23.90;44.69;95109.53;5035738;28;20555;-82
2021/09/14 06:23:06;;;;;;;14.80;10.43;;;;;;;24.13;44.50;95110.97;5035219;28;20456;-82
2021/09/14 06:25:33;;;;;;;13.87;10.20;;;;;;;24.45;44.30;95104.75;5035075;28;20526;-82
2021/09/14 06:28:01;;;;;;;14.30;9.97;;;;;;;24.77;42.36;95107.53;5035545;28;20464;-82
2021/09/14 06:30:28;;;;;;;10.23;9.10;;;;;;;24.67;43.20;95103.44;5035065;28;20445;-82
2021/09/14 06:32:55;;;;;;;11.13;9.07;;;;;;;24.92;42.99;95100.03;5035677;28;20451;-82
2021/09/14 06:35:22;;;;;;;15.33;9.83;;;;;;;25.15;42.54;95097.66;5016565;28;20894;-82
2021/09/14 06:37:49;;;;;;;10.97;9.80;;;;;;;25.29;42.72;95101.13;5035154;28;20536;-82
2021/09/14 06:40:16;;;;;;;15.30;10.00;;;;;;;25.13;42.10;95097.06;5016188;28;20907;-82
2021/09/14 06:42:43;;;;;;;16.17;10.20;;;;;;;25.22;41.99;95098.47;5035162;28;20548;-83
2021/09/14 06:45:12;;;;;;;12.20;9.97;;;;;;;25.44;42.65;95109.69;5035127;28;20452;-82
2021/09/14 06:47:39;;;;;;;12.20;10.20;;;;;;;25.24;43.09;95106.31;5034750;28;20950;-82
2021/09/14 06:50:07;;;;;;;10.83;9.63;;;;;;;24.68;44.80;95107.78;5034920;28;20446;-82
2021/09/14 06:52:33;;;;;;;12.87;9.20;;;;;;;24.07;45.52;95108.09;5034407;28;20531;-82
2021/09/14 06:55:00;;;;;;;12.63;9.20;;;;;;;24.34;46.18;95118.81;5034527;28;20575;-82
2021/09/14 06:57:27;;;;;;;14.73;8.70;;;;;;;24.71;43.92;95109.22;5034438;28;20929;-82
2021/09/14 06:59:54;;;;;;;11.93;9.97;;;;;;;24.78;44.21;95111.84;5034395;28;20491;-82
2021/09/14 07:02:23;;;;;;;12.63;9.60;;;;;;;24.78;43.60;95110.00;5034613;28;20541;-82
2021/09/14 07:04:49;;;;;;;15.07;9.43;;;;;;;24.60;43.68;95116.06;5034522;28;20456;-82
2021/09/14 07:07:16;;;;;;;18.63;10.10;;;;;;;24.37;44.27;95118.38;5034471;28;20940;-83
2021/09/14 07:09:43;;;;;;;11.20;8.60;;;;;;;24.30;45.10;95122.94;5032546;28;20850;-83
2021/09/14 07:12:11;;;;;;;9.80;8.73;;;;;;;24.05;44.21;95120.06;5034082;28;20863;-83
2021/09/14 07:14:38;;;;;;;19.23;9.03;;;;;;;23.70;44.96;95119.41;5034252;28;20450;-82
2021/09/14 07:17:05;;;;;;;11.67;8.10;;;;;;;24.06;44.99;95122.53;5034363;28;20452;-82
2021/09/14 07:19:33;;;;;;;13.53;9.97;;;;;;;24.48;44.48;95130.31;5034177;28;20448;-82
2021/09/14 07:22:00;;;;;;;12.27;8.93;;;;;;;24.65;44.25;95121.63;5034226;28;20446;-82
2021/09/14 07:24:27;;;;;;;10.50;8.87;;;;;;;24.68;44.05;95121.19;5034072;28;20555;-82
2021/09/14 07:26:54;;;;;;;15.00;10.20;;;;;;;24.60;43.99;95126.81;5034949;28;20532;-83
2021/09/14 07:29:21;;;;;;;13.53;9.17;;;;;;;24.94;44.13;95120.28;5034089;28;20452;-82
2021/09/14 07:31:50;;;;;;;12.40;9.20;;;;;;;25.19;42.56;95122.25;5033511;28;20501;-82
2021/09/14 07:34:17;;;;;;;12.67;9.70;;;;;;;25.42;42.16;95124.38;5033913;28;20449;-82
2021/09/14 07:36:45;;;;;;;11.27;10.07;;;;;;;24.93;42.86;95129.38;5033684;28;20946;-83
2021/09/14 07:39:12;;;;;;;12.40;9.20;;;;;;;25.15;42.62;95118.34;5034043;28;20532;-83
2021/09/14 07:41:39;;;;;;;12.17;8.90;;;;;;;24.83;41.79;95120.91;5034094;28;20626;-83
2021/09/14 07:44:06;;;;;;;14.83;8.73;;;;;;;24.91;41.73;95115.34;5033672;28;20454;-82
2021/09/14 07:46:33;;;;;;;10.17;8.80;;;;;;;25.08;41.82;95118.38;5033699;28;20460;-83
2021/09/14 07:49:00;;;;;;;15.13;8.53;;;;;;;25.30;41.98;95121.56;5033756;28;20528;-83
2021/09/14 07:51:29;;;;;;;11.87;9.67;;;;;;;25.01;41.89;95117.59;5033895;28;21160;-83
2021/09/14 07:53:57;;;;;;;12.00;9.07;;;;;;;25.20;42.31;95119.34;5033684;28;20491;-82
2021/09/14 07:56:24;;;;;;;10.17;8.83;;;;;;;25.42;41.10;95121.69;5033363;28;20528;-82
2021/09/14 07:58:51;;;;;;;10.00;9.00;;;;;;;25.38;41.34;95124.00;5033616;28;20869;-82
2021/09/14 08:01:18;;;;;;;11.70;9.30;;;;;;;25.22;42.07;95119.97;5033269;28;20489;-82
2021/09/14 08:03:45;;;;;;;28.90;9.20;;;;;;;25.31;41.69;95115.16;5048027;28;20441;-82
2021/09/14 08:06:12;;;;;;;12.23;8.47;;;;;;;25.47;42.13;95120.03;5033601;28;20468;-82
2021/09/14 08:08:39;;;;;;;9.93;8.87;;;;;;;25.70;41.81;95114.09;5033420;28;20453;-82
2021/09/14 08:11:07;;;;;;;12.70;8.67;;;;;;;25.92;42.07;95111.84;5033541;28;20529;-82
2021/09/14 08:13:34;;;;;;;11.03;8.97;;;;;;;26.13;41.97;95114.16;5033259;28;20450;-82
2021/09/14 08:16:01;;;;;;;14.43;9.20;;;;;;;26.06;40.69;95117.97;5033521;28;20450;-82
2021/09/14 08:18:28;;;;;;;10.87;9.77;;;;;;;26.16;41.00;95111.03;5047637;28;20442;-82
2021/09/14 08:20:55;;;;;;;14.97;9.23;;;;;;;26.10;41.12;95106.53;5033176;28;21065;-82
2021/09/14 08:23:22;;;;;;;9.37;8.43;;;;;;;25.85;40.87;95103.84;5033391;28;20453;-82
2021/09/14 08:25:49;;;;;;;12.70;9.00;;;;;;;25.98;41.48;95107.47;5033140;28;20933;-83
2021/09/14 08:28:18;;;;;;;9.67;8.70;;;;;;;26.15;40.51;95097.81;5033019;28;20534;-82
2021/09/14 08:30:45;;;;;;;11.00;9.67;;;;;;;26.07;40.72;95098.09;5033043;28;20446;-83
2021/09/14 08:33:12;;;;;;;16.40;9.77;;;;;;;26.18;40.29;95092.78;5033073;28;20447;-83
2021/09/14 08:35:38;;;;;;;13.43;9.67;;;;;;;26.48;39.74;95090.25;5032821;28;20855;-82
2021/09/14 08:38:05;;;;;;;13.83;9.57;;;;;;;26.77;39.28;95094.06;5032639;28;20529;-83
2021/09/14 08:40:32;;;;;;;18.00;9.57;;;;;;;26.67;38.64;95093.78;5030709;28;20486;-83
2021/09/14 08:43:00;;;;;;;14.83;8.73;;;;;;;26.75;39.06;95084.56;5031767;28;20927;-83
2021/09/14 08:45:28;;;;;;;20.47;9.87;;;;;;;26.57;38.53;95082.69;5032607;28;20531;-83
2021/09/14 08:47:56;;;;;;;11.20;10.00;;;;;;;26.62;38.56;95082.03;5030545;28;20521;-83
2021/09/14 08:50:24;;;;;;;12.97;10.20;;;;;;;26.37;38.12;95077.53;5032550;28;20435;-83
2021/09/14 08:52:51;;;;;;;19.73;10.57;;;;;;;26.37;39.98;95072.16;5032588;28;20497;-82
2021/09/14 08:55:18;;;;;;;20.90;9.70;;;;;;;26.27;40.91;95073.66;5032915;28;20986;-83
2021/09/14 08:57:50;;;;;;;18.47;10.37;;;;;;;26.27;40.91;95076.34;5032717;28;20435;-83
2021/09/14 09:00:23;;;;;;;23.23;8.80;;;;;;;26.34;39.24;95063.72;5032408;28;20458;-82
2021/09/14 09:02:56;;;;;;;21.13;9.20;;;;;;;26.39;37.59;95059.31;5046237;28;20450;-83
2021/09/14 09:05:31;;;;;;;12.23;7.90;;;;;;;26.61;37.87;95065.06;5032536;28;20446;-83
2021/09/14 09:07:58;;;;;;;11.57;7.63;;;;;;;26.67;36.32;95066.03;5032579;28;20442;-83
2021/09/14 09:10:26;;;;;;;8.50;7.70;;;;;;;26.80;35.01;95060.47;5032734;28;20435;-83
2021/09/14 09:12:53;;;;;;;10.83;7.83;;;;;;;26.90;35.41;95058.09;5032012;28;20533;-83
2021/09/14 09:15:25;;;;;;;10.90;7.63;;;;;;;27.02;35.69;95053.59;5032183;28;20529;-82
2021/09/14 09:18:09;;;;;;;8.03;7.30;;;;;;;27.12;35.31;95061.94;5032615;28;20537;-82
2021/09/14 09:20:38;;;;;;;8.77;7.20;;;;;;;27.27;34.54;95058.84;5032080;28;20573;-83
2021/09/14 09:23:07;;;;;;;9.87;8.03;;;;;;;27.37;34.07;95060.97;5032397;28;20457;-83
2021/09/14 09:25:35;;;;;;;11.50;7.30;;;;;;;27.44;33.29;95054.41;5032068;28;20447;-83
2021/09/14 09:28:11;;;;;;;7.73;6.93;;;;;;;27.44;33.50;95050.91;5032057;28;20451;-83
2021/09/14 09:30:41;;;;;;;10.20;7.53;;;;;;;27.38;33.81;95041.03;5030139;28;20446;-83
2021/09/14 09:33:11;;;;;;;10.13;7.13;;;;;;;27.38;33.95;95038.34;5031972;28;20533;-83
2021/09/14 09:35:40;;;;;;;9.63;8.10;;;;;;;27.48;32.85;95043.19;5032029;28;20451;-83
2021/09/14 09:38:08;;;;;;;14.37;7.30;;;;;;;27.31;32.53;95034.94;5032443;28;20461;-83
2021/09/14 09:40:37;;;;;;;6.83;6.20;;;;;;;27.36;34.90;95032.38;5032082;28;20438;-82
2021/09/14 09:43:07;;;;;;;7.10;6.00;;;;;;;27.29;32.78;95031.66;5032217;28;20446;-82
2021/09/14 09:45:40;;;;;;;8.83;5.43;;;;;;;27.34;32.98;95040.69;5031993;28;20451;-83
2021/09/14 09:48:09;;;;;;;9.30;6.57;;;;;;;27.47;33.75;95034.28;5031986;28;20537;-83
2021/09/14 09:50:37;;;;;;;7.97;6.57;;;;;;;27.58;33.30;95033.47;5031857;28;20529;-83
2021/09/14 09:53:06;;;;;;;6.67;6.07;;;;;;;27.67;33.44;95037.50;5046037;28;20484;-83
2021/09/14 09:55:34;;;;;;;7.33;6.47;;;;;;;27.74;32.69;95035.50;5035910;28;20435;-83
2021/09/14 09:58:05;;;;;;;6.70;6.00;;;;;;;27.80;32.61;95032.97;5036186;28;20806;-83
2021/09/14 10:00:34;;;;;;;9.30;6.40;;;;;;;27.84;32.13;95023.34;5036088;28;20801;-83
2021/09/14 10:03:04;;;;;;;6.83;6.13;;;;;;;27.89;33.46;95026.16;5035658;28;20537;-83
2021/09/14 10:05:35;;;;;;;8.03;6.30;;;;;;;27.98;33.50;95019.34;5036138;28;20442;-83
2021/09/14 10:08:08;;;;;;;10.00;6.17;;;;;;;27.86;32.35;95015.84;5035791;28;20446;-83
2021/09/14 10:10:35;;;;;;;9.80;6.70;;;;;;;27.82;32.73;95009.28;5033406;28;20464;-83
2021/09/14 10:13:04;;;;;;;6.33;5.70;;;;;;;27.79;32.83;95010.56;5035439;28;20454;-83
2021/09/14 10:15:40;;;;;;;12.07;6.70;;;;;;;27.62;32.23;95010.41;5035784;28;20450;-83
2021/09/14 10:18:09;;;;;;;9.60;6.13;;;;;;;27.55;32.54;95004.28;5035176;28;20655;-83
2021/09/14 10:20:42;;;;;;;6.87;6.10;;;;;;;27.49;33.61;95010.63;5035271;28;20538;-83
2021/09/14 10:23:17;;;;;;;8.43;6.10;;;;;;;27.50;33.77;95006.06;5035336;28;20945;-83
2021/09/14 10:25:50;;;;;;;8.47;6.77;;;;;;;27.58;33.25;95005.69;5016932;28;20444;-83
2021/09/14 10:28:19;;;;;;;7.90;5.80;;;;;;;27.53;32.32;95002.88;5035316;28;20466;-83
2021/09/14 10:30:47;;;;;;;13.27;6.07;;;;;;;27.55;32.64;94996.22;5035456;28;20439;-82
2021/09/14 10:33:22;;;;;;;7.90;7.20;;;;;;;27.53;33.74;94992.94;5035179;28;20446;-83
2021/09/14 10:35:51;;;;;;;7.93;6.13;;;;;;;27.49;31.63;94993.63;5035257;28;20468;-83
2021/09/14 10:38:19;;;;;;;8.40;6.20;;;;;;;27.19;32.24;94999.06;5035387;28;20446;-83
2021/09/14 10:40:48;;;;;;;8.20;5.90;;;;;;;27.12;32.68;94991.88;5035084;28;20527;-82
2021/09/14 10:43:37;;;;;;;7.50;6.03;;;;;;;27.10;31.40;94996.69;5016587;28;20999;-83
2021/09/14 10:46:04;;;;;;;6.13;5.27;;;;;;;26.97;30.82;94987.97;4993385;28;20955;-82
2021/09/14 10:48:33;;;;;;;5.60;5.20;;;;;;;26.93;31.62;94995.69;4993212;28;20448;-83
2021/09/14 10:51:12;;;;;;;6.40;5.63;;;;;;;26.92;31.79;94987.81;4993262;28;20532;-83
2021/09/14 10:53:40;;;;;;;11.30;7.03;;;;;;;26.82;31.79;94988.34;4960294;28;20974;-83
2021/09/14 10:56:10;;;;;;;6.90;5.40;;;;;;;26.94;32.48;94981.16;4993017;28;20810;-83
2021/09/14 10:58:43;;;;;;;6.90;5.80;;;;;;;27.03;31.22;94981.69;4993253;28;20440;-83
2021/09/14 11:01:10;;;;;;;6.20;5.40;;;;;;;27.15;30.77;94982.53;4992950;28;20891;-83
2021/09/14 11:03:37;;;;;;;6.53;5.63;;;;;;;27.15;30.92;94979.81;4993072;28;20436;-83
2021/09/14 11:06:05;;;;;;;5.90;5.10;;;;;;;27.26;30.24;94973.66;4991908;28;21077;-83
2021/09/14 11:08:33;;;;;;;6.30;5.70;;;;;;;27.40;30.75;94977.78;4992883;28;20448;-83
2021/09/14 11:11:01;;;;;;;7.00;5.43;;;;;;;27.51;31.68;94980.72;4992798;28;20447;-83
2021/09/14 11:13:30;;;;;;;9.00;5.73;;;;;;;27.63;30.92;94979.72;4992593;28;20452;-83
2021/09/14 11:16:00;;;;;;;6.50;5.80;;;;;;;27.71;31.15;94975.84;4992560;28;20991;-83
2021/09/14 11:18:30;;;;;;;7.20;5.50;;;;;;;27.65;29.73;94984.88;4992758;28;20451;-83
2021/09/14 11:21:04;;;;;;;9.27;6.40;;;;;;;27.46;30.38;94976.00;4992820;28;20453;-83
2021/09/14 11:23:31;;;;;;;11.17;5.77;;;;;;;27.31;30.11;94972.97;5020730;28;20465;-83
2021/09/14 11:26:00;;;;;;;8.10;6.13;;;;;;;27.42;30.10;94972.97;5034208;28;20452;-83
2021/09/14 11:28:27;;;;;;;7.17;5.80;;;;;;;27.05;30.46;94980.41;5034126;28;20446;-83
2021/09/14 11:30:57;;;;;;;9.43;5.33;;;;;;;26.96;31.14;94978.22;5034174;28;20451;-83
2021/09/14 11:33:25;;;;;;;7.70;5.50;;;;;;;26.73;30.77;94976.28;5034244;28;20447;-83
2021/09/14 11:35:53;;;;;;;6.23;4.70;;;;;;;26.76;30.83;94968.56;5034024;28;20504;-83
2021/09/14 11:38:20;;;;;;;5.30;4.60;;;;;;;26.78;30.56;94965.63;5034317;28;20766;-83
2021/09/14 11:40:49;;;;;;;5.73;5.13;;;;;;;26.91;31.33;94961.94;5033739;28;20445;-83
2021/09/14 11:43:22;;;;;;;8.83;5.53;;;;;;;26.98;30.98;94962.66;5033843;28;20486;-83
2021/09/14 11:45:49;;;;;;;7.77;5.63;;;;;;;27.10;31.06;94964.34;5033870;28;20442;-83
2021/09/14 11:48:19;;;;;;;6.23;5.53;;;;;;;27.22;31.46;94963.56;5033755;28;20439;-83
2021/09/14 11:50:46;;;;;;;6.90;5.80;;;;;;;27.05;30.08;94955.31;5033818;28;20446;-83
2021/09/14 11:53:18;;;;;;;6.43;5.60;;;;;;;26.83;31.00;94960.38;5015063;28;20470;-83
2021/09/14 11:55:46;;;;;;;6.27;5.67;;;;;;;26.85;31.34;94961.78;5033656;28;20455;-83
2021/09/14 11:58:15;;;;;;;8.33;5.10;;;;;;;26.94;31.47;94962.31;5033546;28;20438;-83
2021/09/14 12:00:46;;;;;;;6.83;5.50;;;;;;;27.04;31.49;94962.59;5033294;28;20815;-83
2021/09/14 12:03:17;;;;;;;6.20;5.60;;;;;;;26.97;30.74;94963.72;5033488;28;20482;-83
2021/09/14 12:05:55;;;;;;;9.47;5.87;;;;;;;26.97;31.80;94958.31;5033308;28;20475;-83
2021/09/14 12:08:30;;;;;;;11.00;5.63;;;;;;;27.04;31.05;94948.31;5033505;28;20434;-83
2021/09/14 12:10:57;;;;;;;6.70;6.10;;;;;;;27.11;30.28;94943.63;5033354;28;20450;-83
2021/09/14 12:13:24;;;;;;;6.80;5.87;;;;;;;27.16;29.80;94947.25;5033588;28;20449;-83
2021/09/14 12:15:57;;;;;;;6.23;5.70;;;;;;;27.27;30.21;94944.84;5033363;28;20545;-83
2021/09/14 12:18:25;;;;;;;7.83;5.70;;;;;;;27.30;30.44;94941.69;5033092;28;20890;-83
2021/09/14 12:20:52;;;;;;;5.77;5.37;;;;;;;27.31;30.37;94938.75;5033422;28;20544;-83
2021/09/14 12:23:19;;;;;;;10.87;6.70;;;;;;;27.31;30.71;94929.84;5033038;28;20478;-83
2021/09/14 12:25:46;;;;;;;5.30;4.80;;;;;;;27.27;29.99;94936.75;5033241;28;20442;-83
2021/09/14 12:28:12;;;;;;;8.73;5.10;;;;;;;27.30;29.37;94939.81;5033152;28;20938;-83
2021/09/14 12:30:40;;;;;;;5.53;4.67;;;;;;;27.20;29.46;94936.03;5030707;28;20453;-83
2021/09/14 12:33:11;;;;;;;8.30;5.43;;;;;;;27.24;28.25;94927.25;5032936;28;20957;-83